Time;durP1;ratioP1;P1;durP2;ratioP2;P2;SDS_P1;SDS_P2;PMS_P1;PMS_P2;Temp;Humidity;BMP_temperature;BMP_pressure;BME280_temperature;BME280_humidity;BME280_pressure;Samples;Min_cycle;Max_cycle;Signal;HPM_P1;HPM_P2
2022/01/30 00:00:39;;;;;;;4.70;2.00;;;10.70;81.30;;;;;;5073621;28;20051;-62
2022/01/30 00:03:05;;;;;;;3.58;1.75;;;10.70;81.30;;;;;;5073741;28;20036;-62
2022/01/30 00:05:33;;;;;;;5.00;1.90;;;10.70;81.30;;;;;;5073532;28;20036;-60
2022/01/30 00:07:58;;;;;;;8.90;1.75;;;10.70;81.30;;;;;;5055059;28;20411;-60
2022/01/30 00:10:24;;;;;;;7.35;2.40;;;10.70;81.30;;;;;;5073285;28;20040;-61
2022/01/30 00:12:56;;;;;;;4.50;1.70;;;10.70;81.30;;;;;;5073710;28;20068;-62
2022/01/30 00:15:35;;;;;;;6.60;1.80;;;10.70;81.30;;;;;;5073252;28;20476;-60
2022/01/30 00:20:58;;;;;;;6.10;2.35;;;10.70;81.30;;;;;;5073541;28;20404;-62
2022/01/30 00:23:26;;;;;;;4.30;1.98;;;10.70;81.30;;;;;;5073319;28;20048;-60
2022/01/30 00:25:54;;;;;;;4.47;1.60;;;10.70;81.20;;;;;;5072583;28;20517;-60
2022/01/30 00:28:23;;;;;;;4.18;1.48;;;10.70;81.30;;;;;;5054363;28;20505;-59
2022/01/30 00:30:49;;;;;;;3.45;1.67;;;10.70;81.20;;;;;;5072971;28;20059;-60
2022/01/30 00:33:15;;;;;;;6.30;2.30;;;10.70;81.30;;;;;;5072629;28;20040;-60
2022/01/30 00:35:41;;;;;;;4.72;1.90;;;10.60;81.20;;;;;;5073114;28;20520;-60
2022/01/30 00:38:11;;;;;;;3.80;1.73;;;10.70;81.30;;;;;;5072855;28;20040;-59
2022/01/30 00:40:38;;;;;;;6.05;1.92;;;10.70;81.20;;;;;;5053492;28;20044;-60
2022/01/30 00:43:04;;;;;;;6.20;2.53;;;10.70;81.30;;;;;;5053829;28;20477;-60
2022/01/30 00:45:30;;;;;;;5.50;2.17;;;10.70;81.30;;;;;;5072559;28;20090;-60
2022/01/30 00:47:56;;;;;;;4.70;1.83;;;10.70;81.30;;;;;;5072821;28;20048;-60
2022/01/30 00:50:22;;;;;;;5.50;2.05;;;10.70;81.30;;;;;;5072268;28;20036;-59
2022/01/30 00:52:53;;;;;;;4.35;1.90;;;10.70;81.30;;;;;;5073110;28;20048;-60
2022/01/30 00:55:19;;;;;;;6.63;1.90;;;10.60;81.30;;;;;;5072086;28;20498;-60
2022/01/30 00:57:45;;;;;;;5.60;2.10;;;10.60;81.30;;;;;;5073024;28;20374;-59
2022/01/30 01:00:11;;;;;;;4.40;1.92;;;10.70;81.30;;;;;;5072111;28;20101;-60
2022/01/30 01:02:37;;;;;;;6.72;2.50;;;10.70;81.30;;;;;;5072133;28;20040;-59
2022/01/30 01:05:05;;;;;;;5.47;2.10;;;10.80;81.40;;;;;;5071727;28;20067;-59
2022/01/30 01:07:33;;;;;;;7.75;2.63;;;10.70;81.30;;;;;;5072273;28;20044;-58
2022/01/30 01:10:07;;;;;;;5.53;1.95;;;10.70;81.30;;;;;;5072377;28;20048;-59
2022/01/30 01:23:30;;;;;;;5.57;2.08;;;10.70;81.30;;;;;;5066623;28;20131;-60
2022/01/30 01:25:58;;;;;;;4.93;1.83;;;10.60;81.30;;;;;;5072194;28;20101;-59
2022/01/30 01:28:25;;;;;;;5.63;2.20;;;10.70;81.30;;;;;;5070724;28;20041;-59
2022/01/30 01:30:51;;;;;;;6.68;2.67;;;10.70;81.30;;;;;;5072419;28;20044;-58
2022/01/30 01:33:17;;;;;;;5.82;2.15;;;10.70;81.30;;;;;;5071368;28;20080;-59
2022/01/30 01:35:43;;;;;;;6.90;2.13;;;10.60;81.30;;;;;;5071595;28;20115;-59
2022/01/30 01:38:11;;;;;;;6.75;2.22;;;10.60;81.30;;;;;;5071064;28;20040;-60
2022/01/30 01:40:39;;;;;;;6.13;2.38;;;10.60;81.30;;;;;;5071429;28;20044;-58
2022/01/30 01:43:04;;;;;;;5.22;1.98;;;10.70;81.30;;;;;;5071561;28;20416;-59
2022/01/30 01:45:35;;;;;;;5.00;2.00;;;10.60;81.30;;;;;;5071686;28;20055;-60
2022/01/30 01:48:08;;;;;;;4.28;2.17;;;10.60;81.30;;;;;;5070586;28;21792;-59
2022/01/30 01:50:39;;;;;;;5.80;2.13;;;10.70;82.00;;;;;;5071958;28;20040;-59
2022/01/30 01:53:11;;;;;;;4.97;1.77;;;10.60;81.30;;;;;;5071226;28;20500;-58
2022/01/30 01:55:38;;;;;;;7.22;2.00;;;10.60;81.30;;;;;;5071683;28;20045;-58
2022/01/30 01:58:04;;;;;;;6.30;2.30;;;10.60;81.30;;;;;;5070989;28;20058;-60
2022/01/30 02:00:30;;;;;;;4.05;2.13;;;10.60;81.20;;;;;;5071106;28;20040;-59
2022/01/30 02:02:56;;;;;;;5.03;1.95;;;10.60;81.20;;;;;;5071296;28;20037;-59
2022/01/30 02:05:23;;;;;;;6.63;1.98;;;10.60;81.20;;;;;;5071240;28;20102;-59
2022/01/30 02:10:35;;;;;;;7.78;2.42;;;10.60;81.20;;;;;;5071193;28;20401;-59
2022/01/30 02:13:19;;;;;;;5.93;2.05;;;10.60;81.20;;;;;;5071090;28;20040;-58
2022/01/30 02:24:26;;;;;;;6.97;2.42;;;10.60;81.30;;;;;;4989427;28;20050;-58
2022/01/30 02:26:51;;;;;;;7.90;2.30;;;10.60;81.30;;;;;;4990077;28;20050;-60
2022/01/30 02:29:19;;;;;;;7.45;2.88;;;10.60;81.30;;;;;;4994412;28;20096;-59
2022/01/30 02:31:44;;;;;;;7.63;2.08;;;10.60;81.30;;;;;;5007892;28;20104;-59
2022/01/30 02:34:10;;;;;;;6.40;2.30;;;10.60;81.30;;;;;;5000565;28;20046;-60
2022/01/30 02:36:46;;;;;;;5.68;2.50;;;10.60;81.30;;;;;;4991546;28;20202;-60
2022/01/30 02:39:12;;;;;;;5.47;1.70;;;10.60;81.20;;;;;;5008371;28;20050;-60
2022/01/30 02:41:39;;;;;;;6.50;2.08;;;10.60;81.20;;;;;;5007527;28;20489;-61
2022/01/30 02:46:47;;;;;;;7.10;2.22;;;10.60;81.30;;;;;;4989685;28;20133;-59
2022/01/30 02:51:50;;;;;;;6.55;2.10;;;10.60;81.20;;;;;;4992948;28;20404;-60
2022/01/30 02:54:16;;;;;;;7.32;2.47;;;10.60;81.30;;;;;;5026589;28;20057;-59
2022/01/30 02:56:42;;;;;;;6.13;2.10;;;10.60;81.30;;;;;;5072262;28;20039;-60
2022/01/30 02:59:08;;;;;;;6.90;2.10;;;10.60;81.30;;;;;;5074835;28;20056;-60
2022/01/30 03:01:33;;;;;;;8.68;2.50;;;10.60;81.20;;;;;;5074647;28;20040;-60
2022/01/30 03:03:59;;;;;;;6.50;2.47;;;10.60;81.20;;;;;;5074149;28;20373;-60
2022/01/30 03:06:25;;;;;;;5.90;2.40;;;10.60;81.20;;;;;;5075063;28;20044;-60
2022/01/30 03:08:52;;;;;;;8.23;2.45;;;10.60;81.20;;;;;;5074881;28;20048;-60
2022/01/30 03:11:18;;;;;;;8.70;2.25;;;10.60;81.20;;;;;;5074547;28;20526;-59
2022/01/30 03:13:44;;;;;;;8.38;2.80;;;10.60;81.20;;;;;;5074870;28;20086;-59
2022/01/30 03:16:10;;;;;;;6.10;2.60;;;10.60;81.20;;;;;;5074410;28;20040;-60
2022/01/30 03:18:36;;;;;;;7.18;2.85;;;10.60;81.20;;;;;;5074486;28;20079;-59
2022/01/30 03:21:02;;;;;;;5.75;2.20;;;10.70;81.20;;;;;;5073990;28;20131;-59
2022/01/30 03:23:29;;;;;;;9.20;2.80;;;10.60;81.80;;;;;;5074352;28;20047;-60
2022/01/30 03:25:58;;;;;;;6.15;2.35;;;10.60;81.20;;;;;;5074708;28;20067;-59
2022/01/30 03:28:25;;;;;;;7.38;2.53;;;10.70;81.30;;;;;;5074490;28;20048;-59
2022/01/30 03:30:55;;;;;;;6.72;2.42;;;10.60;81.20;;;;;;5074056;28;20480;-59
2022/01/30 03:33:21;;;;;;;6.53;2.20;;;10.60;81.20;;;;;;5073869;28;20064;-59
2022/01/30 03:35:47;;;;;;;7.90;2.58;;;10.60;81.20;;;;;;5074255;28;20040;-60
2022/01/30 03:38:14;;;;;;;4.00;2.40;;;10.60;81.20;;;;;;5073813;28;20110;-61
2022/01/30 03:40:40;;;;;;;7.35;2.35;;;10.70;81.30;;;;;;5074387;28;20053;-59
2022/01/30 03:43:06;;;;;;;6.97;2.50;;;10.60;81.20;;;;;;5054881;28;20057;-59
2022/01/30 03:45:31;;;;;;;7.30;2.50;;;10.60;81.20;;;;;;5073858;28;20048;-59
2022/01/30 03:47:57;;;;;;;7.32;2.25;;;10.70;81.20;;;;;;5074616;28;20041;-59
2022/01/30 03:50:23;;;;;;;5.50;2.00;;;10.60;81.20;;;;;;5073759;28;20040;-58
2022/01/30 03:52:49;;;;;;;7.28;2.40;;;10.60;81.20;;;;;;5071903;28;20094;-59
2022/01/30 03:55:15;;;;;;;8.32;2.70;;;10.70;81.30;;;;;;5058899;28;20130;-61
2022/01/30 03:57:41;;;;;;;6.15;2.60;;;10.60;81.20;;;;;;5061767;28;20412;-60
2022/01/30 04:00:07;;;;;;;6.53;2.03;;;10.60;81.20;;;;;;5073601;28;20041;-61
2022/01/30 04:02:34;;;;;;;6.60;2.83;;;10.60;81.20;;;;;;5073271;28;20489;-60
2022/01/30 04:05:00;;;;;;;8.90;2.83;;;10.60;81.20;;;;;;5072935;28;20143;-59
2022/01/30 04:07:26;;;;;;;7.18;2.70;;;10.60;81.20;;;;;;5073044;28;20536;-59
2022/01/30 04:09:52;;;;;;;9.35;3.10;;;10.60;81.20;;;;;;5073830;28;20046;-59
2022/01/30 04:12:18;;;;;;;5.47;2.10;;;10.60;81.20;;;;;;5054944;28;20135;-60
2022/01/30 04:14:45;;;;;;;6.72;2.97;;;10.60;81.20;;;;;;5073024;28;20476;-60
2022/01/30 04:17:11;;;;;;;7.63;2.42;;;10.60;81.10;;;;;;5073345;28;20040;-59
2022/01/30 04:19:37;;;;;;;8.18;2.55;;;10.60;81.10;;;;;;5073381;28;20555;-60
2022/01/30 04:22:03;;;;;;;6.15;2.63;;;10.60;81.10;;;;;;5072409;28;20052;-59
2022/01/30 04:24:28;;;;;;;6.35;2.63;;;10.60;81.20;;;;;;5073749;28;20036;-59
2022/01/30 04:26:54;;;;;;;5.70;2.25;;;10.70;81.20;;;;;;5073527;28;20047;-59
2022/01/30 04:29:20;;;;;;;8.13;2.65;;;10.60;81.10;;;;;;5073048;28;20033;-59
2022/01/30 04:31:48;;;;;;;6.68;2.72;;;10.60;81.20;;;;;;5073512;28;20485;-59
2022/01/30 04:34:14;;;;;;;9.63;2.80;;;10.60;81.10;;;;;;5072613;28;20079;-59
2022/01/30 04:36:54;;;;;;;7.22;2.67;;;10.60;81.20;;;;;;5072522;28;20067;-60
2022/01/30 04:57:54;;;;;;;9.55;2.80;;;10.60;81.20;;;;;;5072072;28;20052;-59
2022/01/30 05:07:47;;;;;;;8.82;3.10;;;10.60;81.20;;;;;;5072510;28;20045;-59
2022/01/30 05:10:13;;;;;;;10.38;3.38;;;10.60;81.20;;;;;;5072052;28;20090;-59
2022/01/30 05:12:59;;;;;;;7.80;2.92;;;10.60;81.20;;;;;;5072535;28;20431;-58
2022/01/30 05:15:27;;;;;;;5.78;2.47;;;10.60;81.20;;;;;;5071716;28;20048;-59
2022/01/30 05:17:54;;;;;;;6.45;2.63;;;10.60;81.20;;;;;;5072137;28;20052;-59
2022/01/30 05:20:20;;;;;;;9.73;3.05;;;10.60;81.20;;;;;;5071951;28;20056;-60
2022/01/30 05:22:46;;;;;;;11.82;3.50;;;10.60;81.20;;;;;;5072612;28;20094;-60
2022/01/30 05:25:12;;;;;;;8.25;2.90;;;10.60;81.20;;;;;;5071565;28;20447;-59
2022/01/30 05:27:38;;;;;;;8.95;3.05;;;10.60;81.20;;;;;;5072513;28;20119;-59
2022/01/30 05:30:05;;;;;;;7.35;2.20;;;10.60;81.10;;;;;;5071926;28;20052;-60
2022/01/30 05:32:31;;;;;;;9.60;3.45;;;10.60;81.10;;;;;;5071669;28;20045;-60
2022/01/30 05:35:07;;;;;;;;;;;10.60;81.10;;;;;;5109500;27;20412;-57
2022/01/30 05:37:33;;;;;;;6.68;2.30;;;10.60;81.10;;;;;;5109647;28;19931;-58
2022/01/30 05:39:58;;;;;;;6.97;2.55;;;10.60;81.20;;;;;;5108538;28;20047;-57
2022/01/30 05:42:27;;;;;;;8.98;2.70;;;10.60;81.20;;;;;;5108457;28;20122;-58
2022/01/30 05:45:10;;;;;;;10.43;2.75;;;10.60;81.20;;;;;;5107808;28;20043;-59
2022/01/30 05:47:43;;;;;;;10.23;3.40;;;10.60;81.20;;;;;;5109187;28;20562;-57
2022/01/30 05:50:10;;;;;;;9.98;2.92;;;10.60;81.20;;;;;;5108684;28;20068;-57
2022/01/30 05:52:36;;;;;;;7.60;2.95;;;10.60;81.20;;;;;;5108768;28;20048;-57
2022/01/30 05:55:01;;;;;;;8.75;3.00;;;10.60;81.20;;;;;;5108414;28;20094;-57
2022/01/30 05:57:27;;;;;;;8.45;2.65;;;10.60;81.20;;;;;;5109154;28;20032;-57
2022/01/30 05:59:53;;;;;;;11.52;3.38;;;10.70;81.20;;;;;;5108767;28;20095;-57
2022/01/30 06:02:18;;;;;;;8.73;2.95;;;10.60;81.10;;;;;;5107969;28;20071;-57
2022/01/30 06:04:44;;;;;;;5.90;2.80;;;10.60;81.20;;;;;;5108879;28;20079;-58
2022/01/30 06:07:11;;;;;;;9.10;2.95;;;10.70;81.20;;;;;;5108522;28;20039;-57
2022/01/30 06:09:37;;;;;;;6.10;2.70;;;10.60;81.10;;;;;;5108432;28;20036;-57
2022/01/30 06:12:03;;;;;;;8.50;2.83;;;10.60;81.10;;;;;;5108260;28;20119;-57
2022/01/30 06:14:29;;;;;;;7.88;2.72;;;10.60;81.10;;;;;;5108365;28;20071;-57
2022/01/30 06:16:55;;;;;;;9.02;2.70;;;10.60;81.10;;;;;;5108710;28;20480;-57
2022/01/30 06:19:22;;;;;;;8.02;3.55;;;10.60;81.10;;;;;;5108297;28;20032;-56
2022/01/30 06:21:48;;;;;;;9.13;3.13;;;10.60;81.10;;;;;;5108217;28;20044;-57
2022/01/30 06:24:14;;;;;;;8.45;2.92;;;10.60;81.20;;;;;;5108162;28;20039;-58
2022/01/30 06:26:40;;;;;;;7.97;2.50;;;10.60;81.10;;;;;;5108333;28;20122;-58
2022/01/30 06:29:05;;;;;;;8.02;2.95;;;10.60;81.10;;;;;;5105861;28;20071;-57
2022/01/30 06:31:31;;;;;;;9.65;2.60;;;10.60;81.10;;;;;;5073017;28;20131;-58
2022/01/30 06:33:57;;;;;;;6.90;2.58;;;10.60;81.10;;;;;;5104558;28;20135;-58
2022/01/30 06:36:22;;;;;;;7.55;2.80;;;10.60;81.10;;;;;;5108566;28;20043;-59
2022/01/30 06:38:49;;;;;;;7.68;2.50;;;10.60;81.10;;;;;;5108342;28;20093;-57
2022/01/30 06:41:14;;;;;;;7.13;2.97;;;10.60;81.10;;;;;;5107345;28;20039;-57
2022/01/30 06:43:40;;;;;;;12.02;2.72;;;10.60;81.10;;;;;;5107808;28;20071;-57
2022/01/30 06:46:08;;;;;;;7.13;3.05;;;10.60;81.10;;;;;;5095781;28;20043;-58
2022/01/30 06:48:33;;;;;;;4.85;2.55;;;10.70;81.00;;;;;;5094582;28;20044;-58
2022/01/30 06:50:59;;;;;;;8.10;3.17;;;10.60;81.00;;;;;;5093907;28;20037;-58
2022/01/30 06:53:24;;;;;;;5.65;2.40;;;10.60;81.00;;;;;;5094114;28;20044;-57
2022/01/30 06:55:50;;;;;;;6.53;2.92;;;10.60;81.00;;;;;;5093699;28;20036;-58
2022/01/30 06:58:16;;;;;;;8.23;3.53;;;10.60;81.00;;;;;;5094091;28;20127;-57
2022/01/30 07:00:42;;;;;;;6.93;2.58;;;10.60;81.00;;;;;;5094330;28;20040;-58
2022/01/30 07:03:07;;;;;;;8.82;2.92;;;10.60;81.00;;;;;;5093787;28;20068;-57
2022/01/30 07:05:33;;;;;;;8.00;2.78;;;10.60;81.10;;;;;;5094132;28;20032;-58
2022/01/30 07:07:59;;;;;;;7.80;3.05;;;10.60;81.00;;;;;;5093649;28;20396;-58
2022/01/30 07:10:25;;;;;;;8.30;2.97;;;10.60;81.10;;;;;;5094010;28;20036;-58
2022/01/30 07:12:50;;;;;;;5.05;2.65;;;10.60;81.00;;;;;;5093615;28;20389;-58
2022/01/30 07:15:16;;;;;;;6.85;2.47;;;10.60;81.00;;;;;;5093049;28;20040;-59
2022/01/30 07:17:42;;;;;;;8.90;3.20;;;10.60;81.10;;;;;;5093832;28;20373;-58
2022/01/30 07:20:09;;;;;;;7.85;3.25;;;10.60;81.10;;;;;;5093402;28;20055;-57
2022/01/30 07:22:35;;;;;;;5.70;2.53;;;10.60;81.00;;;;;;5093450;28;20144;-58
2022/01/30 07:25:01;;;;;;;8.70;2.88;;;10.60;81.00;;;;;;5092088;28;20039;-58
2022/01/30 07:27:26;;;;;;;7.05;2.75;;;10.60;81.00;;;;;;5092551;28;20466;-57
2022/01/30 07:29:52;;;;;;;7.13;2.85;;;10.60;81.00;;;;;;5093423;28;20036;-57
2022/01/30 07:32:18;;;;;;;7.78;2.60;;;10.60;81.00;;;;;;5093446;28;20048;-58
2022/01/30 07:34:44;;;;;;;7.47;2.55;;;10.60;81.00;;;;;;5093214;28;20124;-58
2022/01/30 07:37:12;;;;;;;6.05;2.20;;;10.60;80.90;;;;;;5092900;28;20056;-59
2022/01/30 07:39:38;;;;;;;8.18;2.30;;;10.60;80.90;;;;;;5093480;28;20044;-58
2022/01/30 07:42:04;;;;;;;6.47;2.88;;;10.60;81.00;;;;;;5092772;28;20044;-58
2022/01/30 07:44:30;;;;;;;9.43;2.97;;;10.60;80.90;;;;;;5093199;28;20112;-58
2022/01/30 07:46:56;;;;;;;8.93;3.20;;;10.60;80.90;;;;;;5093290;28;20492;-59
2022/01/30 07:49:21;;;;;;;9.32;2.72;;;10.70;80.90;;;;;;5092900;28;20036;-60
2022/01/30 07:51:47;;;;;;;9.15;2.83;;;10.60;80.80;;;;;;5093288;28;20503;-59
2022/01/30 07:54:13;;;;;;;6.00;2.50;;;10.60;80.90;;;;;;5092665;28;20044;-58
2022/01/30 07:56:39;;;;;;;7.15;2.67;;;10.60;80.90;;;;;;5091957;28;20040;-57
2022/01/30 07:59:05;;;;;;;6.50;2.42;;;10.60;80.90;;;;;;5092047;28;20047;-57
2022/01/30 08:01:31;;;;;;;8.40;2.40;;;10.60;80.90;;;;;;5093182;28;20058;-59
2022/01/30 08:03:56;;;;;;;8.02;2.90;;;10.60;80.90;;;;;;5092983;28;20403;-58
2022/01/30 08:06:22;;;;;;;8.13;3.08;;;10.60;80.90;;;;;;5092327;28;20476;-58
2022/01/30 08:08:48;;;;;;;4.28;2.20;;;10.60;80.90;;;;;;5091204;28;20054;-58
2022/01/30 08:11:13;;;;;;;7.00;2.60;;;10.60;80.90;;;;;;5092566;28;20040;-59
2022/01/30 08:13:39;;;;;;;6.13;2.50;;;10.60;80.90;;;;;;5092559;28;20388;-59
2022/01/30 08:16:05;;;;;;;5.90;2.45;;;10.70;80.90;;;;;;5092177;28;20036;-58
2022/01/30 08:18:32;;;;;;;8.88;2.78;;;10.60;80.90;;;;;;5092666;28;20044;-58
2022/01/30 08:20:58;;;;;;;6.78;2.45;;;10.60;80.90;;;;;;5091682;28;20058;-58
2022/01/30 08:23:27;;;;;;;4.47;2.15;;;10.60;80.90;;;;;;5091323;28;20565;-58
2022/01/30 08:25:53;;;;;;;5.63;2.90;;;10.60;80.90;;;;;;5092509;28;20411;-59
2022/01/30 08:28:18;;;;;;;7.20;2.97;;;10.60;80.90;;;;;;5091965;28;20119;-58
2022/01/30 08:30:45;;;;;;;9.55;2.42;;;10.60;80.90;;;;;;5089852;28;20044;-59
2022/01/30 08:33:15;;;;;;;6.88;2.20;;;10.60;80.90;;;;;;5091448;28;20044;-58
2022/01/30 08:35:40;;;;;;;5.15;2.35;;;10.60;80.90;;;;;;5092174;28;20090;-59
2022/01/30 08:38:06;;;;;;;6.72;2.90;;;10.60;80.90;;;;;;5091751;28;20048;-58
2022/01/30 08:40:32;;;;;;;7.60;2.30;;;10.70;80.90;;;;;;5092232;28;20047;-59
2022/01/30 08:42:59;;;;;;;5.68;2.25;;;10.70;81.00;;;;;;5087458;28;20040;-57
2022/01/30 08:45:25;;;;;;;7.75;2.75;;;10.60;80.90;;;;;;5077184;28;20040;-59
2022/01/30 08:47:51;;;;;;;7.15;2.60;;;10.60;80.90;;;;;;5070519;28;20055;-58
2022/01/30 08:50:19;;;;;;;6.80;2.20;;;10.70;81.00;;;;;;5071292;28;20582;-58
2022/01/30 08:52:45;;;;;;;6.50;2.63;;;10.60;80.90;;;;;;5069378;28;20111;-57
2022/01/30 08:55:12;;;;;;;7.57;2.97;;;10.70;80.90;;;;;;5066902;28;20059;-56
2022/01/30 08:57:38;;;;;;;8.15;2.80;;;10.60;80.90;;;;;;5064980;28;20067;-57
2022/01/30 09:00:08;;;;;;;5.75;2.53;;;10.60;80.80;;;;;;5068388;28;20053;-58
2022/01/30 09:02:33;;;;;;;7.85;2.45;;;10.60;80.80;;;;;;5069446;28;20503;-57
2022/01/30 09:04:59;;;;;;;5.10;2.40;;;10.60;80.90;;;;;;5068162;28;20048;-58
2022/01/30 09:07:25;;;;;;;3.72;1.77;;;10.60;80.80;;;;;;5069301;28;20037;-59
2022/01/30 09:09:50;;;;;;;5.30;2.50;;;10.60;80.90;;;;;;5052053;28;20522;-59
2022/01/30 09:12:16;;;;;;;6.90;2.58;;;10.60;80.90;;;;;;5070158;28;20435;-61
2022/01/30 09:14:42;;;;;;;8.30;2.40;;;10.60;80.90;;;;;;5070209;28;20106;-61
2022/01/30 09:17:14;;;;;;;5.03;2.38;;;10.60;80.90;;;;;;5069640;28;20039;-61
2022/01/30 09:19:42;;;;;;;6.20;2.70;;;10.60;80.90;;;;;;5068365;28;20036;-61
2022/01/30 09:22:09;;;;;;;8.77;2.50;;;10.60;80.90;;;;;;5068460;28;20484;-62
2022/01/30 09:24:36;;;;;;;7.63;2.60;;;10.60;80.90;;;;;;5070355;28;20116;-62
2022/01/30 09:27:02;;;;;;;8.95;2.50;;;10.60;80.90;;;;;;5075968;28;20040;-61
2022/01/30 09:29:28;;;;;;;6.10;2.80;;;10.60;80.90;;;;;;5076780;28;20047;-60
2022/01/30 09:31:55;;;;;;;7.07;2.67;;;10.60;80.90;;;;;;5103354;28;20078;-61
2022/01/30 09:34:21;;;;;;;6.38;2.33;;;10.60;80.90;;;;;;5071189;28;20114;-62
2022/01/30 09:36:47;;;;;;;4.85;2.10;;;10.60;81.00;;;;;;5070981;28;20370;-62
2022/01/30 09:39:12;;;;;;;7.13;2.42;;;10.60;80.90;;;;;;5070958;28;20102;-61
2022/01/30 09:41:40;;;;;;;6.00;2.50;;;10.60;80.90;;;;;;5103484;28;20040;-62
2022/01/30 09:44:06;;;;;;;7.47;2.42;;;10.60;80.90;;;;;;5071002;28;20208;-61
2022/01/30 09:46:32;;;;;;;7.35;2.53;;;10.60;80.90;;;;;;5070030;28;20033;-60
2022/01/30 09:48:59;;;;;;;7.63;2.47;;;10.70;80.90;;;;;;5070759;28;20054;-60
2022/01/30 09:51:25;;;;;;;5.93;2.33;;;10.70;81.00;;;;;;5071146;28;20772;-62
2022/01/30 09:53:51;;;;;;;8.63;2.85;;;10.60;80.90;;;;;;5070273;28;20044;-62
2022/01/30 09:56:18;;;;;;;7.50;2.60;;;10.60;80.90;;;;;;5070995;28;20083;-61
2022/01/30 09:58:45;;;;;;;5.65;2.17;;;10.60;80.90;;;;;;5070349;28;20361;-62
2022/01/30 10:01:11;;;;;;;7.28;2.65;;;10.60;80.90;;;;;;5070899;28;20788;-62
2022/01/30 10:03:37;;;;;;;5.88;2.88;;;10.60;80.90;;;;;;5070556;28;20045;-62
2022/01/30 10:06:13;;;;;;;6.35;2.63;;;10.60;80.90;;;;;;5071326;28;20438;-61
2022/01/30 10:08:44;;;;;;;5.38;2.20;;;10.70;80.90;;;;;;5070345;28;20121;-62
2022/01/30 10:14:14;;;;;;;7.82;2.42;;;10.60;81.00;;;;;;5071211;28;20400;-62
2022/01/30 10:16:49;;;;;;;7.03;2.40;;;10.60;81.00;;;;;;5070584;28;20059;-62
2022/01/30 10:19:20;;;;;;;8.07;2.60;;;10.60;81.00;;;;;;5070727;28;20041;-61
2022/01/30 10:22:08;;;;;;;5.38;2.97;;;10.60;81.00;;;;;;5074215;28;20127;-59
2022/01/30 10:24:43;;;;;;;5.15;2.15;;;10.70;81.00;;;;;;5073057;28;20400;-60
2022/01/30 10:27:24;;;;;;;5.80;2.15;;;10.60;81.10;;;;;;5062529;28;20574;-60
2022/01/30 10:32:34;;;;;;;5.70;2.22;;;10.70;81.10;;;;;;5053718;28;20557;-60
2022/01/30 10:35:01;;;;;;;6.70;2.17;;;10.60;81.00;;;;;;5048331;28;20049;-59
2022/01/30 10:37:27;;;;;;;7.30;2.22;;;10.60;81.00;;;;;;5074384;28;20186;-60
2022/01/30 10:40:14;;;;;;;5.93;2.22;;;10.60;81.00;;;;;;5066715;28;20057;-60
2022/01/30 10:42:41;;;;;;;6.05;1.92;;;10.70;81.10;;;;;;5068362;28;20041;-62
2022/01/30 10:45:29;;;;;;;6.60;2.30;;;10.60;81.10;;;;;;5073567;28;20040;-60
2022/01/30 10:48:17;;;;;;;4.88;2.33;;;10.70;81.10;;;;;;5065843;28;20048;-62
2022/01/30 10:50:48;;;;;;;6.55;2.17;;;10.70;81.10;;;;;;5068823;28;20422;-59
2022/01/30 10:53:22;;;;;;;5.05;2.30;;;10.60;81.10;;;;;;5058796;28;20067;-60
2022/01/30 10:55:48;;;;;;;3.75;2.05;;;10.60;81.10;;;;;;5074219;28;20116;-61
2022/01/30 10:58:20;;;;;;;5.95;2.80;;;10.60;81.00;;;;;;5073564;28;20170;-60
2022/01/30 11:00:47;;;;;;;5.32;2.55;;;10.70;81.10;;;;;;5073763;28;20519;-62
2022/01/30 11:03:51;;;;;;;5.00;2.30;;;10.70;81.10;;;;;;5069989;28;20118;-60
2022/01/30 11:06:17;;;;;;;4.88;2.10;;;10.70;81.10;;;;;;5053391;28;21384;-59
2022/01/30 11:08:47;;;;;;;4.65;2.05;;;10.60;81.10;;;;;;5070879;28;20049;-60
2022/01/30 11:11:33;;;;;;;5.18;2.42;;;10.70;81.10;;;;;;5069911;28;20116;-60
2022/01/30 11:19:18;;;;;;;5.07;2.13;;;10.70;81.20;;;;;;5069373;28;20048;-63
2022/01/30 11:22:05;;;;;;;6.07;2.28;;;10.70;81.20;;;;;;5072641;28;20047;-62
2022/01/30 11:25:02;;;;;;;6.07;2.10;;;10.70;81.20;;;;;;5072598;28;20044;-62
2022/01/30 11:27:28;;;;;;;5.97;2.38;;;10.70;81.20;;;;;;5037809;28;20526;-63
2022/01/30 11:29:54;;;;;;;5.28;1.98;;;10.70;81.30;;;;;;5072748;28;20127;-63
2022/01/30 11:32:22;;;;;;;5.72;2.35;;;10.70;81.30;;;;;;5071878;28;20466;-61
2022/01/30 11:34:47;;;;;;;5.10;2.17;;;10.70;81.30;;;;;;5072378;28;20045;-63
2022/01/30 11:37:16;;;;;;;5.13;1.90;;;10.70;81.30;;;;;;5072137;28;20044;-63
2022/01/30 11:39:48;;;;;;;5.35;2.03;;;10.70;81.30;;;;;;5072858;28;20044;-61
2022/01/30 11:42:21;;;;;;;5.03;1.92;;;10.70;81.30;;;;;;5069277;28;20433;-63
2022/01/30 11:45:06;;;;;;;5.35;2.42;;;10.70;81.30;;;;;;5072456;28;20052;-61
2022/01/30 11:47:44;;;;;;;3.05;1.67;;;10.60;81.20;;;;;;5057628;28;20048;-61
2022/01/30 11:50:11;;;;;;;4.50;1.90;;;10.70;81.30;;;;;;5070831;28;20048;-63
2022/01/30 11:53:04;;;;;;;3.25;1.90;;;10.70;81.30;;;;;;5071026;28;20484;-63
2022/01/30 11:55:48;;;;;;;24.45;7.38;;;10.70;81.30;;;;;;5070267;28;20029;-62
2022/01/30 11:58:41;;;;;;;15.25;5.43;;;10.60;78.80;;;;;;5070634;28;20113;-60
2022/01/30 12:01:35;;;;;;;15.90;3.95;;;10.60;79.00;;;;;;5067828;28;20099;-63
2022/01/30 12:04:10;;;;;;;9.65;3.55;;;10.60;79.30;;;;;;5069348;28;20048;-61
2022/01/30 12:06:44;;;;;;;11.95;3.38;;;10.60;79.60;;;;;;5070084;28;20199;-60
2022/01/30 12:09:19;;;;;;;14.00;3.25;;;10.60;79.70;;;;;;5069200;28;20036;-60
2022/01/30 12:11:54;;;;;;;8.75;3.33;;;10.60;79.80;;;;;;5070248;28;20052;-62
2022/01/30 12:14:20;;;;;;;14.63;3.88;;;10.60;79.90;;;;;;5070766;28;20048;-60
2022/01/30 12:16:48;;;;;;;32.28;7.88;;;10.60;80.10;;;;;;5070258;28;20089;-63
2022/01/30 12:19:45;;;;;;;25.20;6.30;;;10.60;77.80;;;;;;5069486;28;20051;-64
2022/01/30 12:22:16;;;;;;;26.85;5.63;;;10.60;77.40;;;;;;5068701;28;20037;-64
2022/01/30 12:24:46;;;;;;;18.65;5.30;;;10.50;77.70;;;;;;5071015;28;20040;-61
2022/01/30 12:27:12;;;;;;;20.80;5.47;;;10.50;77.90;;;;;;5069665;28;20041;-66
2022/01/30 12:29:40;;;;;;;16.35;4.40;;;10.50;78.10;;;;;;5070696;28;20400;-63
2022/01/30 12:32:24;;;;;;;19.80;5.55;;;10.60;78.30;;;;;;5069551;28;20055;-62
2022/01/30 12:35:03;;;;;;;16.33;4.75;;;10.50;78.50;;;;;;5070309;28;20139;-63
2022/01/30 12:37:33;;;;;;;14.70;4.80;;;10.60;78.70;;;;;;5068031;28;20123;-61
2022/01/30 12:40:11;;;;;;;14.52;4.75;;;10.50;78.80;;;;;;5069764;28;20063;-65
2022/01/30 12:42:37;;;;;;;13.13;5.13;;;10.60;79.00;;;;;;5065774;28;20048;-64
2022/01/30 12:45:06;;;;;;;12.13;4.38;;;10.60;79.10;;;;;;5069498;28;20036;-61
2022/01/30 12:47:59;;;;;;;12.68;4.00;;;10.60;79.30;;;;;;5079287;28;20095;-64
2022/01/30 12:50:28;;;;;;;13.68;4.18;;;10.60;79.40;;;;;;5068411;28;20094;-60
2022/01/30 12:52:54;;;;;;;11.45;4.20;;;10.60;79.50;;;;;;5067945;28;20035;-58
2022/01/30 12:55:22;;;;;;;15.05;4.50;;;10.60;79.60;;;;;;5069631;28;20045;-64
2022/01/30 12:57:51;;;;;;;10.77;4.25;;;10.60;79.70;;;;;;5069917;28;20050;-62
2022/01/30 13:00:17;;;;;;;11.35;4.22;;;10.60;79.70;;;;;;5060314;28;20036;-60
2022/01/30 13:03:01;;;;;;;12.15;4.18;;;10.60;79.80;;;;;;5069372;28;20036;-62
2022/01/30 13:05:30;;;;;;;16.00;4.38;;;10.60;79.80;;;;;;5067048;28;20053;-62
2022/01/30 13:07:57;;;;;;;7.53;3.65;;;10.60;79.90;;;;;;5069369;28;20037;-62
2022/01/30 13:10:25;;;;;;;9.73;3.72;;;10.60;80.00;;;;;;5069612;28;20492;-64
2022/01/30 13:12:51;;;;;;;7.88;3.38;;;10.60;80.00;;;;;;5069958;28;20045;-64
2022/01/30 13:15:22;;;;;;;10.32;3.53;;;10.60;80.10;;;;;;5069433;28;20083;-64
2022/01/30 13:17:48;;;;;;;10.93;3.70;;;10.60;80.10;;;;;;5069735;28;20071;-60
2022/01/30 13:20:14;;;;;;;8.80;3.28;;;10.70;80.20;;;;;;5064135;28;20041;-63
2022/01/30 13:22:43;;;;;;;8.77;3.22;;;10.70;80.20;;;;;;5064361;28;20093;-64
2022/01/30 13:25:17;;;;;;;12.30;3.83;;;10.70;80.30;;;;;;5052627;28;20040;-64
2022/01/30 13:27:48;;;;;;;7.68;3.10;;;10.70;80.30;;;;;;5070127;28;20044;-62
2022/01/30 13:30:30;;;;;;;8.48;3.45;;;10.70;80.30;;;;;;5069867;28;20493;-64
2022/01/30 13:32:55;;;;;;;9.10;3.25;;;10.70;81.00;;;;;;5069875;28;20044;-66
2022/01/30 13:35:29;;;;;;;10.82;3.25;;;10.80;80.50;;;;;;5069927;28;20049;-62
2022/01/30 13:37:58;;;;;;;11.35;3.55;;;10.70;80.40;;;;;;5067822;28;20053;-61
2022/01/30 13:40:38;;;;;;;8.60;3.08;;;10.70;80.40;;;;;;5069909;28;20041;-65
2022/01/30 13:43:13;;;;;;;9.48;4.35;;;10.70;80.50;;;;;;5070003;28;20083;-64
2022/01/30 13:48:16;;;;;;;10.32;3.22;;;10.70;80.50;;;;;;5069856;28;20557;-60
2022/01/30 13:50:52;;;;;;;10.68;3.55;;;10.70;80.60;;;;;;5069111;28;20036;-64
2022/01/30 13:53:20;;;;;;;6.28;3.05;;;10.70;80.60;;;;;;5067384;28;20048;-63
2022/01/30 13:55:57;;;;;;;6.78;3.17;;;10.70;80.60;;;;;;5063582;28;20507;-59
2022/01/30 13:58:38;;;;;;;8.63;3.22;;;10.70;80.60;;;;;;5066522;28;20101;-60
2022/01/30 14:01:07;;;;;;;9.38;2.95;;;10.70;80.60;;;;;;5064367;28;20102;-60
2022/01/30 14:03:35;;;;;;;7.28;3.75;;;10.70;80.70;;;;;;5072606;28;20068;-62